Kyokuho Maru No.15 — JI3715 — position and weather

sailwx.info

Track history (hours):
 
Tides and Currents Weather Stations Pressure Air Temp Water Temp Dewpoint Dewpoint Depression Visibility Wind Speed Wind Dir Waves Ship Positions

Kyokuho Maru No.15

Last reported at 2014-Oct-23 18:32 UTC. Time now 2014-Oct-23 19:17 UTC.
Position N 34°03' E 132°26'.

Length 63 m; draft 4.2 m.

Type: Tanker. MMSI: 431301714.

Date/timePositionNaut miles runAvg speedWind from/ knotsBaromVisibWave heightAir tempDewpointWater temp
2014-Oct-23 18:32N 34°03' E 132°26'1110.9
2014-Oct-23 17:32N 34°05' E 132°40'11611.7
2014-Oct-23 07:33N 34°36' E 134°55'10 9.7
2014-Oct-23 06:33N 34°36' E 135°07'9 9.1
2014-Oct-23 05:33N 34°39' E 135°18'0 0.0
2014-Oct-23 04:33N 34°39' E 135°18'0 0.0
2014-Oct-23 03:33N 34°39' E 135°18'0 0.0
2014-Oct-23 02:33N 34°39' E 135°18'0 0.0
2014-Oct-23 01:34N 34°39' E 135°18'0 0.0
2014-Oct-23 00:33N 34°39' E 135°18'1 1.1
2014-Oct-22 23:34N 34°39' E 135°19'4 3.7
2014-Oct-22 22:33N 34°35' E 135°21'5 0.3
2014-Oct-22 05:09N 34°31' E 135°24'2 2.8
2014-Oct-22 04:32N 34°32' E 135°24'8 7.4
2014-Oct-22 03:28N 34°40' E 135°25'0 0.0
2014-Oct-22 02:33N 34°40' E 135°25'0 0.0
2014-Oct-22 01:32N 34°40' E 135°25'0 0.0
2014-Oct-22 00:33N 34°40' E 135°25'0 0.0
2014-Oct-21 23:32N 34°40' E 135°25'4 3.7
2014-Oct-21 22:33N 34°38' E 135°28'3 0.1
2014-Oct-21 03:33N 34°39' E 135°25'3 2.8
2014-Oct-21 02:33N 34°37' E 135°23'8 8.3
2014-Oct-21 01:32N 34°30' E 135°16'1111.7
2014-Oct-21 00:33N 34°22' E 135°07'1111.4
2014-Oct-20 23:33N 34°11' E 135°03'241 5.7
2014-Oct-19 05:33N 35°18' E 139°44'10 9.7
2014-Oct-19 04:33N 35°27' E 139°47'12 2.2
2014-Oct-18 23:16N 35°31' E 140°01'7 0.3
2014-Oct-17 23:28N 35°30' E 139°52'1011.1
2014-Oct-17 22:33N 35°21' E 139°45'  
Track history (hours):
 
Tides and Currents Weather Stations Pressure Air Temp Water Temp Dewpoint Dewpoint Depression Visibility Wind Speed Wind Dir Waves Ship Positions

Kyokuho Maru No.15

Last reported at 2014-Oct-23 18:32 UTC. Time now 2014-Oct-23 19:17 UTC.
Position N 34°03' E 132°26'.

Length 63 m; draft 4.2 m.

Type: Tanker. MMSI: 431301714.

Date/timePositionNaut miles runAvg speedWind from/ knotsBaromVisibWave heightAir tempDewpointWater temp
2014-Oct-23 18:32N 34°03' E 132°26'1110.9
2014-Oct-23 17:32N 34°05' E 132°40'11611.7
2014-Oct-23 07:33N 34°36' E 134°55'10 9.7
2014-Oct-23 06:33N 34°36' E 135°07'9 9.1
2014-Oct-23 05:33N 34°39' E 135°18'0 0.0
2014-Oct-23 04:33N 34°39' E 135°18'0 0.0
2014-Oct-23 03:33N 34°39' E 135°18'0 0.0
2014-Oct-23 02:33N 34°39' E 135°18'0 0.0
2014-Oct-23 01:34N 34°39' E 135°18'0 0.0
2014-Oct-23 00:33N 34°39' E 135°18'1 1.1
2014-Oct-22 23:34N 34°39' E 135°19'4 3.7
2014-Oct-22 22:33N 34°35' E 135°21'5 0.3
2014-Oct-22 05:09N 34°31' E 135°24'2 2.8
2014-Oct-22 04:32N 34°32' E 135°24'8 7.4
2014-Oct-22 03:28N 34°40' E 135°25'0 0.0
2014-Oct-22 02:33N 34°40' E 135°25'0 0.0
2014-Oct-22 01:32N 34°40' E 135°25'0 0.0
2014-Oct-22 00:33N 34°40' E 135°25'0 0.0
2014-Oct-21 23:32N 34°40' E 135°25'4 3.7
2014-Oct-21 22:33N 34°38' E 135°28'3 0.1
2014-Oct-21 03:33N 34°39' E 135°25'3 2.8
2014-Oct-21 02:33N 34°37' E 135°23'8 8.3
2014-Oct-21 01:32N 34°30' E 135°16'1111.7
2014-Oct-21 00:33N 34°22' E 135°07'1111.4
2014-Oct-20 23:33N 34°11' E 135°03'241 5.7
2014-Oct-19 05:33N 35°18' E 139°44'10 9.7
2014-Oct-19 04:33N 35°27' E 139°47'12 2.2
2014-Oct-18 23:16N 35°31' E 140°01'7 0.3
2014-Oct-17 23:28N 35°30' E 139°52'1011.1
2014-Oct-17 22:33N 35°21' E 139°45'  

Dump ship's entire track history